Time;durP1;ratioP1;P1;durP2;ratioP2;P2;SDS_P1;SDS_P2;PMS_P1;PMS_P2;Temp;Humidity;BMP_temperature;BMP_pressure;BME280_temperature;BME280_humidity;BME280_pressure;Samples;Min_cycle;Max_cycle;Signal;HPM_P1;HPM_P2
2021/12/03 00:09:01;;;;;;;10.07;3.87;;;;;;;2.02;100.00;98780.58;715782;1200;113801;-73
2021/12/03 00:24:04;;;;;;;7.40;3.90;;;;;;;2.03;100.00;98801.16;720397;1205;114950;-74
2021/12/03 00:39:06;;;;;;;8.58;3.45;;;;;;;1.92;100.00;98821.86;715408;1182;113404;-74
2021/12/03 00:54:08;;;;;;;8.18;3.48;;;;;;;1.98;100.00;98835.15;714125;1199;113952;-71
2021/12/03 01:09:10;;;;;;;5.67;3.10;;;;;;;1.79;100.00;98856.38;714087;1184;113421;-71
2021/12/03 01:24:13;;;;;;;9.70;4.65;;;;;;;1.76;100.00;98881.66;714208;1200;114117;-71
2021/12/03 01:39:16;;;;;;;7.35;2.98;;;;;;;1.58;100.00;98902.73;713888;1204;113481;-71
2021/12/03 01:54:19;;;;;;;8.93;4.13;;;;;;;1.51;100.00;98923.99;713896;1205;114797;-72
2021/12/03 02:09:21;;;;;;;7.23;4.30;;;;;;;1.43;100.00;98953.78;714046;1177;113824;-71
2021/12/03 02:24:24;;;;;;;31.90;10.05;;;;;;;1.40;100.00;98972.11;714170;1177;113033;-71
2021/12/03 02:39:26;;;;;;;380.60;89.40;;;;;;;1.36;100.00;99001.69;714079;1179;113838;-71
2021/12/03 02:54:28;;;;;;;125.30;42.08;;;;;;;1.19;100.00;98997.70;714145;1200;115478;-71
2021/12/03 03:09:31;;;;;;;202.57;68.33;;;;;;;0.94;100.00;99012.30;714017;1202;115554;-71
2021/12/03 03:24:34;;;;;;;230.68;76.33;;;;;;;0.77;100.00;99015.20;714241;1204;115386;-71
2021/12/03 03:39:37;;;;;;;121.70;40.70;;;;;;;0.66;100.00;99034.01;714290;1198;115468;-71
2021/12/03 03:54:39;;;;;;;29.05;12.28;;;;;;;0.70;100.00;99035.45;714251;1200;114206;-71
2021/12/03 04:09:41;;;;;;;14.10;7.23;;;;;;;0.87;100.00;99043.80;714211;1176;114422;-71
2021/12/03 04:24:44;;;;;;;11.00;7.30;;;;;;;0.99;100.00;99048.97;714680;1202;115388;-71
2021/12/03 04:39:46;;;;;;;12.23;6.13;;;;;;;0.94;100.00;99055.38;714130;1177;113895;-71
2021/12/03 04:54:48;;;;;;;12.60;5.83;;;;;;;1.11;100.00;99073.14;714195;1175;114447;-71
2021/12/03 05:09:50;;;;;;;13.28;6.65;;;;;;;1.03;100.00;99093.50;713907;1177;113693;-72
2021/12/03 05:24:53;;;;;;;14.20;7.48;;;;;;;1.08;100.00;99088.86;714112;1201;115094;-72
2021/12/03 05:39:55;;;;;;;16.75;8.55;;;;;;;1.12;100.00;99092.03;713997;1176;113811;-71
2021/12/03 05:54:57;;;;;;;17.23;8.90;;;;;;;1.10;100.00;99091.33;714142;1202;114392;-70
2021/12/03 06:10:00;;;;;;;21.40;10.20;;;;;;;0.89;100.00;99088.44;714346;1201;114490;-72
2021/12/03 06:25:03;;;;;;;12.63;7.30;;;;;;;0.74;100.00;99070.45;713993;1176;114046;-71
2021/12/03 06:40:10;;;;;;;110.83;47.03;;;;;;;0.56;100.00;99066.52;714076;1204;115193;-71
2021/12/03 06:55:15;;;;;;;;;;;;;;;0.59;100.00;99061.95;714391;1201;115039;-70
2021/12/03 07:10:17;;;;;;;22.53;10.40;;;;;;;0.83;100.00;99054.34;714120;1200;100788;-72
2021/12/03 07:25:19;;;;;;;21.17;10.27;;;;;;;0.99;100.00;99063.66;715358;1200;113921;-72
2021/12/03 07:40:21;;;;;;;18.98;9.10;;;;;;;1.18;100.00;99093.39;715303;1200;114451;-74
2021/12/03 07:55:24;;;;;;;36.57;15.80;;;;;;;1.33;100.00;99093.17;715066;1200;113899;-74
2021/12/03 08:10:27;;;;;;;22.97;9.57;;;;;;;1.41;100.00;99092.65;715450;1200;114161;-73
2021/12/03 08:25:30;;;;;;;23.55;8.20;;;;;;;1.28;100.00;99082.32;715727;1200;114507;-72
2021/12/03 08:40:33;;;;;;;73.60;27.08;;;;;;;1.30;100.00;99074.46;716316;1199;114098;-71
2021/12/03 08:55:38;;;;;;;19.63;12.63;;;;;;;1.28;100.00;99071.98;718008;1203;114517;-70
2021/12/03 09:10:41;;;;;;;17.75;8.80;;;;;;;1.39;100.00;99101.44;714230;1200;113090;-71
2021/12/03 09:25:56;;;;;;;12.93;7.33;;;;;;;1.40;100.00;99103.91;714423;1200;114129;-70
2021/12/03 09:41:11;;;;;;;31.90;14.03;;;;;;;1.43;100.00;99118.38;714183;1200;113617;-72
2021/12/03 09:56:13;;;;;;;135.47;41.50;;;;;;;1.51;100.00;99113.50;714516;1200;115243;-75
2021/12/03 10:11:49;;;;;;;57.60;21.87;;;;;;;1.58;100.00;99103.56;715816;1200;114626;-75
2021/12/03 10:42:39;;;;;;;19.73;8.07;;;;;;;1.82;100.00;99117.37;714184;1200;114254;-72
2021/12/03 15:02:27;;;;;;;30.40;12.00;;;;;;;2.64;100.00;99310.92;714732;1200;113923;-71
2021/12/03 17:50:40;;;;;;;35.80;13.55;;;;;;;3.16;100.00;99430.75;714969;1177;113843;-75
2021/12/03 18:51:53;;;;;;;32.85;13.80;;;;;;;3.12;98.78;99451.83;714012;1176;113750;-74
2021/12/03 19:07:04;;;;;;;29.03;11.47;;;;;;;3.12;99.72;99449.23;714009;1177;113813;-74
2021/12/03 19:22:07;;;;;;;21.03;11.38;;;;;;;2.89;98.27;99453.42;714017;1178;113533;-74
2021/12/03 19:37:11;;;;;;;27.40;9.87;;;;;;;2.71;97.11;99461.53;714011;1202;114473;-75
2021/12/03 19:52:25;;;;;;;20.35;7.23;;;;;;;2.57;95.99;99469.41;713969;1205;113922;-75
2021/12/03 20:07:27;;;;;;;23.93;8.73;;;;;;;2.43;95.69;99463.41;713958;1176;113308;-74
2021/12/03 20:22:40;;;;;;;21.03;8.37;;;;;;;2.27;95.51;99473.11;713970;1174;113566;-75
2021/12/03 20:37:45;;;;;;;18.80;8.80;;;;;;;2.16;94.35;99481.59;713877;1200;113955;-75
2021/12/03 21:08:02;;;;;;;22.23;9.03;;;;;;;1.74;94.37;99479.13;714447;1199;115660;-77
2021/12/03 21:23:08;;;;;;;23.25;8.63;;;;;;;1.56;94.37;99480.27;715316;1175;113837;-75
2021/12/03 21:38:39;;;;;;;18.43;7.63;;;;;;;1.39;94.02;99478.78;714943;1201;113832;-76
2021/12/03 21:53:35;;;;;;;23.10;8.10;;;;;;;1.38;94.16;99471.95;715047;1202;114298;-76
2021/12/03 22:08:38;;;;;;;15.18;7.65;;;;;;;1.30;94.51;99469.84;714594;1185;113887;-75
2021/12/03 22:23:43;;;;;;;17.48;7.53;;;;;;;1.24;94.20;99462.45;714445;1200;115220;-75
2021/12/03 22:38:46;;;;;;;15.03;7.27;;;;;;;1.15;93.95;99450.96;714711;1202;113543;-75
2021/12/03 22:53:49;;;;;;;18.05;8.00;;;;;;;1.19;94.48;99462.77;715219;1202;113852;-75
2021/12/03 23:09:06;;;;;;;18.58;8.50;;;;;;;1.13;94.33;99427.78;715569;1175;114390;-75
2021/12/03 23:24:09;;;;;;;19.67;7.97;;;;;;;1.10;94.16;99416.83;715368;1177;113844;-75
2021/12/03 23:39:12;;;;;;;12.67;6.93;;;;;;;1.12;93.16;99397.72;715261;1200;114110;-75
2021/12/03 23:54:14;;;;;;;19.68;7.70;;;;;;;1.19;92.30;99363.73;715062;1199;113930;-75
